UBBN

Nakhchivan Airport

Nakhchivan, Azerbaijan
TAF UBBN 181104Z 1812/1912 VRB03KT 9999 FEW050 SCT100 TX23/1812Z TN10/1903Z TEMPO 1812/1818 13010KT
Issued Valid From Valid To
Oct-18 @ 11:04 UTC
(43 minutes ago)
Oct-18 @ 12:00 UTC
(in 13 minutes)
Oct-19 @ 12:00 UTC
(in 24 hours)
Oct-18 @ 12:00 to Oct-19 @ 12:00
TAF UBBN 181104Z 1812/1912 VRB03KT 9999 FEW050 SCT100 TX23/1812Z TN10/1903Z
Wind Visibility Clouds
Variable at 3 knots 10,000+ meters
  • Few at 5,000' AGL
  • Scattered at 10,000' AGL
Temporary Oct-18 @ 12:00 to Oct-18 @ 18:00
TEMPO 1812/1818 13010KT
Wind
130° at 10 knots
TAF UBBN 181104Z 1812/1912 VRB03KT 9999 FEW050 SCT100 TX23/1812Z TN10/1903Z TEMPO 1812/1818 13010KT
Issued Oct-18 @ 11:04 UTC
(43 minutes ago)
Valid From Oct-18 @ 12:00 UTC
(in 13 minutes)
Valid To Oct-19 @ 12:00 UTC
(in 24 hours)
Oct-18 @ 12:00 - Oct-19 @ 12:00
Wind Visibility
Variable at 3 knots 10,000+ meters
Clouds
  • Few at 5,000' AGL
  • Scattered at 10,000' AGL
Temporary Oct-18 @ 12:00 - Oct-18 @ 18:00
Wind
130° at 10 knots